createdAt,value
2023-03-29T00:00:58.401Z,22.95
2023-03-29T00:01:58.390Z,22.91
2023-03-29T00:02:58.483Z,22.94
2023-03-29T00:04:00.448Z,22.92
2023-03-29T00:04:58.395Z,22.97
2023-03-29T00:05:58.373Z,22.95
2023-03-29T00:06:58.372Z,22.97
2023-03-29T00:07:58.332Z,22.94
2023-03-29T00:08:58.312Z,22.95
2023-03-29T00:09:58.286Z,22.95
2023-03-29T00:10:58.266Z,22.97
2023-03-29T00:11:58.246Z,22.98
2023-03-29T00:12:58.228Z,23.01
2023-03-29T00:13:58.210Z,22.95
2023-03-29T00:14:58.180Z,23.00
2023-03-29T00:15:58.156Z,22.98
2023-03-29T00:16:58.180Z,23.00
2023-03-29T00:17:58.197Z,22.95
2023-03-29T00:18:58.105Z,23.04
2023-03-29T00:19:58.085Z,23.00
2023-03-29T00:20:58.063Z,23.03
2023-03-29T00:21:58.045Z,22.97
2023-03-29T00:22:58.029Z,23.00
2023-03-29T00:23:58.003Z,23.03
2023-03-29T00:24:57.996Z,23.01
2023-03-29T00:25:57.972Z,23.03
2023-03-29T00:26:57.957Z,22.99
2023-03-29T00:27:57.939Z,23.01
2023-03-29T00:28:57.916Z,23.03
2023-03-29T00:29:58.918Z,23.01
2023-03-29T00:30:57.910Z,23.04
2023-03-29T00:31:57.901Z,23.04
2023-03-29T00:32:57.920Z,23.04
2023-03-29T00:33:57.834Z,23.07
2023-03-29T00:34:57.812Z,23.08
2023-03-29T00:35:57.843Z,23.05
2023-03-29T00:36:57.772Z,23.05
2023-03-29T00:37:57.757Z,23.04
2023-03-29T00:38:57.727Z,23.01
2023-03-29T00:39:57.710Z,23.03
2023-03-29T00:40:57.726Z,23.05
2023-03-29T00:41:57.790Z,23.07
2023-03-29T00:42:57.769Z,23.04
2023-03-29T00:43:57.809Z,23.04
2023-03-29T00:44:57.819Z,23.05
2023-03-29T00:45:57.923Z,23.04
2023-03-29T00:46:57.872Z,23.01
2023-03-29T00:47:58.003Z,23.05
2023-03-29T00:48:57.928Z,23.04
2023-03-29T00:49:57.959Z,23.04
2023-03-29T00:50:58.384Z,23.01
2023-03-29T00:51:58.005Z,23.07
2023-03-29T00:52:58.015Z,23.06
2023-03-29T00:53:58.048Z,23.07
2023-03-29T00:54:58.072Z,23.10
2023-03-29T00:55:58.100Z,23.09
2023-03-29T00:56:58.131Z,23.07
2023-03-29T00:57:58.110Z,23.04
2023-03-29T00:58:58.115Z,23.09
2023-03-29T00:59:58.112Z,23.10
2023-03-29T01:00:58.128Z,23.09
2023-03-29T01:01:58.247Z,23.05
2023-03-29T01:02:58.274Z,23.07
2023-03-29T01:03:58.189Z,23.04
2023-03-29T01:04:58.196Z,23.13
2023-03-29T01:05:58.236Z,23.08
2023-03-29T01:06:58.269Z,23.13
2023-03-29T01:07:58.294Z,23.13
2023-03-29T01:08:58.203Z,23.05
2023-03-29T01:09:58.217Z,23.10
2023-03-29T01:10:58.220Z,23.13
2023-03-29T01:11:58.230Z,23.13
2023-03-29T01:12:58.225Z,23.11
2023-03-29T01:13:58.242Z,23.11
2023-03-29T01:14:58.253Z,23.10
2023-03-29T01:15:58.283Z,23.11
2023-03-29T01:16:58.348Z,23.14
2023-03-29T01:17:58.464Z,23.13
2023-03-29T01:18:58.312Z,23.16
2023-03-29T01:19:58.365Z,23.16
2023-03-29T01:20:58.309Z,23.19
2023-03-29T01:21:58.312Z,23.17
2023-03-29T01:22:58.326Z,23.20
2023-03-29T01:23:58.404Z,23.20
2023-03-29T01:24:58.345Z,23.14
2023-03-29T01:25:58.351Z,23.14
2023-03-29T01:26:58.352Z,23.17
2023-03-29T01:27:58.381Z,23.16
2023-03-29T01:28:58.366Z,23.19
2023-03-29T01:29:58.428Z,23.17
2023-03-29T01:30:58.396Z,23.22
2023-03-29T01:31:58.431Z,23.19
2023-03-29T01:32:58.475Z,23.18
2023-03-29T01:33:58.477Z,23.16
2023-03-29T01:34:58.499Z,23.22
2023-03-29T01:35:58.634Z,23.21
2023-03-29T01:36:58.575Z,23.20
2023-03-29T01:37:58.582Z,23.25
2023-03-29T01:38:58.618Z,23.21
2023-03-29T01:39:58.694Z,23.26
2023-03-29T01:40:58.682Z,23.22
2023-03-29T01:41:58.705Z,23.23
2023-03-29T01:42:58.734Z,23.22
2023-03-29T01:43:58.762Z,23.25
2023-03-29T01:44:58.827Z,23.27
2023-03-29T01:45:58.847Z,23.23
2023-03-29T01:46:58.837Z,23.22
2023-03-29T01:47:58.911Z,23.29
2023-03-29T01:48:58.901Z,23.26
2023-03-29T01:49:58.936Z,23.26
2023-03-29T01:50:59.055Z,23.30
2023-03-29T01:51:58.972Z,23.29
2023-03-29T01:52:59.008Z,23.30
2023-03-29T01:53:59.031Z,23.30
2023-03-29T01:54:59.063Z,23.31
2023-03-29T01:55:59.095Z,23.30
2023-03-29T01:56:59.156Z,23.27
2023-03-29T01:57:59.162Z,23.34
2023-03-29T01:58:59.169Z,23.34
2023-03-29T01:59:59.243Z,23.36
2023-03-29T02:00:59.284Z,23.33
2023-03-29T02:01:59.316Z,23.40
2023-03-29T02:02:59.396Z,23.39
2023-03-29T02:03:59.316Z,23.34
2023-03-29T02:04:59.906Z,23.43
2023-03-29T02:05:59.370Z,23.39
2023-03-29T02:06:59.409Z,23.37
2023-03-29T02:07:59.401Z,23.40
2023-03-29T02:08:59.430Z,23.34
2023-03-29T02:09:59.475Z,23.40
2023-03-29T02:11:00.054Z,23.34
2023-03-29T02:11:59.521Z,23.40
2023-03-29T02:12:59.543Z,23.40
2023-03-29T02:13:59.573Z,23.39
2023-03-29T02:14:59.598Z,23.42
2023-03-29T02:16:00.474Z,23.44
2023-03-29T02:16:59.909Z,23.40
2023-03-29T02:17:59.761Z,23.49
2023-03-29T02:18:59.714Z,23.46
2023-03-29T02:19:59.747Z,23.47
2023-03-29T02:20:59.916Z,23.46
2023-03-29T02:21:59.807Z,23.43
2023-03-29T02:22:59.833Z,23.41
2023-03-29T02:23:59.856Z,23.47
2023-03-29T02:24:59.888Z,23.46
2023-03-29T02:25:59.902Z,23.44
2023-03-29T02:26:59.931Z,23.46
2023-03-29T02:27:59.957Z,23.43
2023-03-29T02:28:59.987Z,23.49
2023-03-29T02:30:01.264Z,23.43
2023-03-29T02:31:00.291Z,23.53
2023-03-29T02:32:00.051Z,23.47
2023-03-29T02:33:00.235Z,23.48
2023-03-29T02:34:00.144Z,23.49
2023-03-29T02:35:00.153Z,23.50
2023-03-29T02:36:00.212Z,23.55
2023-03-29T02:37:00.220Z,23.53
2023-03-29T02:38:00.230Z,23.54
2023-03-29T02:39:00.264Z,23.53
2023-03-29T02:40:00.295Z,23.54
2023-03-29T02:41:01.152Z,23.53
2023-03-29T02:42:00.439Z,23.55
2023-03-29T02:43:00.386Z,23.57
2023-03-29T02:44:01.407Z,23.58
2023-03-29T02:45:00.447Z,23.51
2023-03-29T02:46:00.484Z,23.58
2023-03-29T02:47:00.550Z,23.55
2023-03-29T02:48:00.631Z,23.54
2023-03-29T02:49:00.568Z,23.57
2023-03-29T02:50:00.609Z,23.58
2023-03-29T02:51:00.804Z,23.60
2023-03-29T02:52:00.651Z,23.57
2023-03-29T02:53:00.695Z,23.55
2023-03-29T02:54:00.713Z,23.57
2023-03-29T02:55:00.758Z,23.62
2023-03-29T02:56:00.830Z,23.60
2023-03-29T02:57:00.867Z,23.63
2023-03-29T02:58:00.827Z,23.60
2023-03-29T02:59:00.852Z,23.60
2023-03-29T03:00:01.158Z,23.64
2023-03-29T03:01:01.228Z,23.64
2023-03-29T03:02:02.035Z,23.61
2023-03-29T03:03:02.006Z,23.63
2023-03-29T03:04:01.036Z,23.67
2023-03-29T03:05:01.036Z,23.67
2023-03-29T03:06:01.041Z,23.69
2023-03-29T03:07:01.053Z,23.69
2023-03-29T03:08:01.072Z,23.75
2023-03-29T03:09:01.090Z,23.71
2023-03-29T03:10:01.105Z,23.74
2023-03-29T03:11:01.294Z,23.75
2023-03-29T03:12:01.115Z,23.82
2023-03-29T03:13:01.130Z,23.79
2023-03-29T03:14:01.140Z,23.80
2023-03-29T03:15:01.160Z,23.82
2023-03-29T03:16:01.929Z,23.82
2023-03-29T03:17:03.898Z,23.79
2023-03-29T03:18:01.149Z,23.86
2023-03-29T03:19:01.090Z,23.84
2023-03-29T03:20:01.070Z,23.84
2023-03-29T03:21:01.280Z,23.86
2023-03-29T03:22:01.009Z,23.86
2023-03-29T03:23:01.004Z,23.84
2023-03-29T03:24:00.976Z,23.87
2023-03-29T03:25:00.955Z,23.89
2023-03-29T03:26:00.939Z,23.89
2023-03-29T03:27:00.913Z,23.89
2023-03-29T03:28:00.877Z,23.90
2023-03-29T03:29:00.873Z,23.94
2023-03-29T03:30:01.080Z,23.94
2023-03-29T03:31:00.976Z,23.94
2023-03-29T03:32:00.835Z,23.94
2023-03-29T03:33:00.798Z,23.98
2023-03-29T03:34:00.760Z,23.98
2023-03-29T03:35:00.735Z,24.00
2023-03-29T03:36:00.751Z,24.00
2023-03-29T03:37:00.700Z,24.01
2023-03-29T03:38:00.683Z,24.00
2023-03-29T03:39:00.658Z,24.05
2023-03-29T03:40:00.721Z,24.01
2023-03-29T03:41:00.950Z,24.04
2023-03-29T03:42:00.591Z,24.05
2023-03-29T03:43:00.581Z,24.07
2023-03-29T03:44:00.558Z,24.05
2023-03-29T03:45:00.523Z,24.01
2023-03-29T03:46:00.561Z,24.08
2023-03-29T03:47:00.499Z,24.11
2023-03-29T03:48:00.535Z,24.02
2023-03-29T03:49:00.429Z,24.07
2023-03-29T03:50:00.400Z,24.08
2023-03-29T03:51:00.709Z,24.08
2023-03-29T03:52:00.353Z,24.08
2023-03-29T03:53:00.326Z,24.04
2023-03-29T03:54:00.306Z,24.15
2023-03-29T03:55:00.306Z,24.08
2023-03-29T03:56:00.249Z,24.07
2023-03-29T03:57:00.254Z,24.07
2023-03-29T03:58:00.196Z,24.07
2023-03-29T03:59:00.182Z,24.07
2023-03-29T04:00:00.215Z,24.07
2023-03-29T04:01:00.249Z,24.06
2023-03-29T04:02:00.196Z,24.10
2023-03-29T04:03:00.134Z,24.07
2023-03-29T04:04:00.120Z,24.08
2023-03-29T04:05:00.002Z,24.09
2023-03-29T04:05:59.970Z,24.06
2023-03-29T04:06:59.946Z,24.09
2023-03-29T04:07:59.924Z,24.10
2023-03-29T04:08:59.970Z,24.10
2023-03-29T04:09:59.858Z,24.07
2023-03-29T04:11:00.105Z,24.05
2023-03-29T04:11:59.813Z,24.05
2023-03-29T04:12:59.796Z,24.06
2023-03-29T04:13:59.762Z,24.15
2023-03-29T04:14:59.734Z,24.09
2023-03-29T04:16:01.515Z,24.06
2023-03-29T04:16:59.679Z,24.08
2023-03-29T04:17:59.714Z,24.06
2023-03-29T04:18:59.669Z,24.03
2023-03-29T04:19:59.589Z,24.06
2023-03-29T04:20:59.664Z,24.05
2023-03-29T04:21:59.531Z,24.08
2023-03-29T04:22:59.504Z,24.02
2023-03-29T04:23:59.485Z,24.02
2023-03-29T04:24:59.448Z,24.08
2023-03-29T04:25:59.423Z,24.04
2023-03-29T04:26:59.398Z,24.03
2023-03-29T04:27:59.381Z,24.06
2023-03-29T04:28:59.352Z,24.05
2023-03-29T04:29:59.323Z,24.02
2023-03-29T04:30:59.311Z,23.99
2023-03-29T04:31:59.276Z,24.08
2023-03-29T04:32:59.265Z,24.01
2023-03-29T04:34:00.409Z,24.05
2023-03-29T04:34:59.251Z,24.04
2023-03-29T04:35:59.337Z,24.05
2023-03-29T04:36:59.234Z,24.04
2023-03-29T04:37:59.241Z,24.02
2023-03-29T04:38:59.231Z,24.05
2023-03-29T04:39:59.991Z,24.06
2023-03-29T04:40:59.294Z,24.00
2023-03-29T04:41:59.220Z,24.06
2023-03-29T04:42:59.227Z,24.04
2023-03-29T04:43:59.298Z,23.98
2023-03-29T04:44:59.253Z,24.03
2023-03-29T04:45:59.237Z,24.03
2023-03-29T04:46:59.222Z,23.99
2023-03-29T04:47:59.254Z,24.01
2023-03-29T04:48:59.233Z,24.00
2023-03-29T04:49:59.234Z,24.04
2023-03-29T04:50:59.296Z,24.01
2023-03-29T04:51:59.222Z,23.99
2023-03-29T04:52:59.230Z,24.01
2023-03-29T04:53:59.237Z,24.07
2023-03-29T04:54:59.232Z,24.01
2023-03-29T04:55:59.236Z,24.04
2023-03-29T04:56:59.264Z,24.01
2023-03-29T04:57:59.239Z,24.04
2023-03-29T04:58:59.263Z,24.10
2023-03-29T04:59:59.267Z,24.07
2023-03-29T05:00:59.359Z,24.04
2023-03-29T05:01:59.262Z,24.08
2023-03-29T05:02:59.271Z,24.04
2023-03-29T05:03:59.261Z,24.04
2023-03-29T05:04:59.347Z,24.02
2023-03-29T05:05:59.246Z,24.07
2023-03-29T05:06:59.252Z,24.06
2023-03-29T05:07:59.253Z,24.04
2023-03-29T05:08:59.467Z,24.08
2023-03-29T05:09:59.267Z,24.04
2023-03-29T05:10:59.347Z,24.09
2023-03-29T05:11:59.269Z,24.06
2023-03-29T05:12:59.262Z,24.07
2023-03-29T05:13:59.276Z,24.13
2023-03-29T05:14:59.296Z,24.11
2023-03-29T05:15:59.324Z,24.13
2023-03-29T05:16:59.302Z,24.06
2023-03-29T05:17:59.413Z,24.07
2023-03-29T05:18:59.323Z,24.10
2023-03-29T05:19:59.339Z,24.35
2023-03-29T05:20:59.508Z,24.37
2023-03-29T05:21:59.350Z,24.44
2023-03-29T05:22:59.368Z,24.69
2023-03-29T05:23:59.370Z,24.76
2023-03-29T05:24:59.396Z,25.08
2023-03-29T05:25:59.391Z,25.21
2023-03-29T05:26:59.415Z,25.51
2023-03-29T05:27:59.414Z,25.95
2023-03-29T05:28:59.412Z,26.33
2023-03-29T05:29:59.431Z,27.47
2023-03-29T05:30:59.597Z,27.94
2023-03-29T05:31:59.542Z,27.11
2023-03-29T05:32:59.602Z,26.70
2023-03-29T05:33:59.569Z,27.18
2023-03-29T05:35:00.437Z,27.20
2023-03-29T05:35:59.610Z,27.33
2023-03-29T05:36:59.643Z,27.80
2023-03-29T05:37:59.692Z,28.56
2023-03-29T05:38:59.756Z,29.07
2023-03-29T05:40:05.702Z,29.35
2023-03-29T05:41:00.941Z,29.89
2023-03-29T05:41:59.721Z,30.01
2023-03-29T05:42:59.707Z,30.29
2023-03-29T05:43:59.688Z,30.57
2023-03-29T05:44:59.687Z,31.15
2023-03-29T05:45:59.678Z,31.45
2023-03-29T05:46:59.621Z,31.64
2023-03-29T05:47:59.615Z,31.81
2023-03-29T05:48:59.568Z,32.12
2023-03-29T05:49:59.540Z,32.46
2023-03-29T05:50:59.512Z,32.54
2023-03-29T05:51:59.552Z,32.75
2023-03-29T05:52:59.535Z,32.89
2023-03-29T05:53:59.987Z,29.23
2023-03-29T05:55:00.399Z,29.44
2023-03-29T05:55:59.510Z,28.84
2023-03-29T05:56:59.513Z,29.02
2023-03-29T05:57:59.492Z,29.95
2023-03-29T05:58:59.510Z,30.61
2023-03-29T05:59:59.510Z,30.79
2023-03-29T06:00:59.510Z,30.97
2023-03-29T06:01:59.488Z,31.37
2023-03-29T06:03:09.856Z,31.54
2023-03-29T06:04:00.542Z,31.66
2023-03-29T06:04:59.510Z,32.26
2023-03-29T06:05:59.460Z,32.36
2023-03-29T06:06:59.437Z,32.63
2023-03-29T06:07:59.396Z,32.81
2023-03-29T06:08:59.366Z,33.08
2023-03-29T06:09:59.331Z,33.42
2023-03-29T06:10:59.961Z,33.58
2023-03-29T06:11:59.281Z,33.78
2023-03-29T06:12:59.239Z,34.08
2023-03-29T06:13:59.212Z,34.19
2023-03-29T06:14:59.183Z,34.54
2023-03-29T06:15:59.143Z,34.56
2023-03-29T06:16:59.175Z,34.87
2023-03-29T06:17:59.106Z,35.01
2023-03-29T06:18:59.054Z,35.21
2023-03-29T06:19:59.099Z,35.30
2023-03-29T06:20:59.045Z,35.68
2023-03-29T06:21:58.992Z,33.84
2023-03-29T06:22:59.030Z,34.26
2023-03-29T06:23:58.936Z,35.06
2023-03-29T06:24:58.904Z,34.60
2023-03-29T06:25:58.920Z,32.20
2023-03-29T06:26:58.972Z,32.63
2023-03-29T06:27:59.998Z,33.15
2023-03-29T06:28:59.991Z,33.22
2023-03-29T06:29:59.091Z,33.30
2023-03-29T06:30:59.192Z,33.36
2023-03-29T06:31:59.237Z,33.52
2023-03-29T06:32:59.254Z,33.62
2023-03-29T06:33:59.233Z,33.70
2023-03-29T06:34:59.239Z,33.81
2023-03-29T06:35:59.960Z,33.80
2023-03-29T06:36:59.260Z,33.98
2023-03-29T06:37:59.270Z,33.98
2023-03-29T06:38:59.280Z,34.03
2023-03-29T06:39:59.296Z,34.20
2023-03-29T06:40:59.326Z,34.24
2023-03-29T06:42:01.982Z,34.54
2023-03-29T06:43:00.334Z,34.39
2023-03-29T06:43:59.235Z,34.36
2023-03-29T06:44:59.199Z,34.30
2023-03-29T06:45:59.214Z,34.34
2023-03-29T06:46:59.154Z,34.33
2023-03-29T06:47:59.191Z,34.37
2023-03-29T06:48:59.094Z,34.34
2023-03-29T06:49:59.072Z,34.34
2023-03-29T06:50:59.043Z,34.26
2023-03-29T06:51:59.294Z,34.26
2023-03-29T06:52:58.986Z,34.29
2023-03-29T06:53:58.971Z,34.15
2023-03-29T06:54:58.942Z,34.16
2023-03-29T06:55:58.904Z,34.08
2023-03-29T06:56:58.937Z,34.05
2023-03-29T06:58:01.734Z,34.01
2023-03-29T06:58:58.829Z,33.95
2023-03-29T06:59:58.803Z,33.92
2023-03-29T07:00:58.776Z,33.80
2023-03-29T07:01:58.896Z,33.82
2023-03-29T07:02:58.855Z,33.78
2023-03-29T07:03:58.731Z,33.81
2023-03-29T07:04:58.694Z,33.78
2023-03-29T07:05:58.741Z,33.67
2023-03-29T07:06:58.646Z,33.68
2023-03-29T07:07:58.699Z,33.70
2023-03-29T07:08:58.608Z,33.77
2023-03-29T07:09:58.623Z,33.74
2023-03-29T07:10:58.560Z,33.84
2023-03-29T07:11:58.526Z,33.79
2023-03-29T07:12:58.498Z,33.80
2023-03-29T07:13:58.463Z,33.86
2023-03-29T07:14:58.434Z,35.44
2023-03-29T07:15:58.456Z,33.99
2023-03-29T07:16:58.423Z,33.99
2023-03-29T07:17:58.431Z,33.83
2023-03-29T07:18:58.348Z,34.01
2023-03-29T07:19:58.356Z,33.98
2023-03-29T07:20:58.302Z,30.91
2023-03-29T07:21:58.283Z,30.64
2023-03-29T07:22:58.264Z,27.79
2023-03-29T07:23:58.239Z,28.56
2023-03-29T07:24:58.229Z,29.12
2023-03-29T07:25:58.212Z,29.76
2023-03-29T07:27:04.047Z,30.08
2023-03-29T07:27:59.391Z,30.35
2023-03-29T07:28:58.171Z,30.42
2023-03-29T07:29:58.165Z,30.52
2023-03-29T07:30:58.146Z,30.65
2023-03-29T07:31:58.139Z,30.76
2023-03-29T07:32:58.250Z,30.71
2023-03-29T07:33:58.145Z,30.77
2023-03-29T07:34:58.093Z,30.91
2023-03-29T07:35:58.187Z,30.91
2023-03-29T07:36:58.066Z,30.82
2023-03-29T07:37:58.044Z,30.77
2023-03-29T07:38:58.027Z,30.63
2023-03-29T07:39:58.045Z,30.71
2023-03-29T07:40:58.094Z,30.70
2023-03-29T07:41:58.164Z,30.63
2023-03-29T07:42:58.192Z,30.73
2023-03-29T07:43:58.294Z,30.68
2023-03-29T07:44:58.337Z,30.65
2023-03-29T07:45:58.358Z,30.68
2023-03-29T07:46:58.372Z,30.71
2023-03-29T07:47:58.674Z,30.67
2023-03-29T07:48:58.424Z,30.66
2023-03-29T07:49:58.458Z,30.76
2023-03-29T07:50:58.498Z,30.79
2023-03-29T07:51:58.510Z,30.76
2023-03-29T07:52:58.536Z,30.85
2023-03-29T07:53:58.602Z,30.76
2023-03-29T07:54:58.576Z,30.76
2023-03-29T07:55:58.619Z,30.74
2023-03-29T07:56:58.675Z,30.68
2023-03-29T07:57:58.637Z,30.78
2023-03-29T07:58:58.670Z,30.75
2023-03-29T07:59:58.685Z,30.73
2023-03-29T08:00:58.782Z,30.69
2023-03-29T08:01:58.713Z,30.63
2023-03-29T08:02:59.555Z,30.63
2023-03-29T08:03:58.856Z,30.64
2023-03-29T08:04:58.771Z,30.69
2023-03-29T08:05:58.755Z,30.79
2023-03-29T08:06:58.777Z,30.79
2023-03-29T08:07:58.785Z,30.84
2023-03-29T08:08:58.791Z,30.86
2023-03-29T08:09:58.795Z,30.93
2023-03-29T08:10:58.808Z,30.48
2023-03-29T08:11:58.814Z,30.58
2023-03-29T08:12:59.033Z,30.87
2023-03-29T08:13:58.836Z,29.53
2023-03-29T08:14:58.839Z,30.19
2023-03-29T08:15:58.830Z,30.08
2023-03-29T08:16:58.898Z,28.81
2023-03-29T08:17:58.891Z,27.84
2023-03-29T08:18:59.539Z,28.73
2023-03-29T08:19:58.987Z,28.24
2023-03-29T08:21:00.855Z,28.63
2023-03-29T08:21:58.921Z,29.58
2023-03-29T08:22:58.891Z,29.68
2023-03-29T08:23:58.890Z,29.82
2023-03-29T08:24:58.860Z,30.37
2023-03-29T08:25:59.534Z,30.41
2023-03-29T08:26:58.822Z,30.18
2023-03-29T08:27:58.829Z,30.48
2023-03-29T08:28:58.796Z,30.56
2023-03-29T08:29:58.777Z,30.72
2023-03-29T08:30:58.867Z,30.84
2023-03-29T08:31:58.749Z,31.27
2023-03-29T08:32:58.741Z,31.27
2023-03-29T08:33:58.734Z,31.25
2023-03-29T08:34:58.775Z,31.35
2023-03-29T08:35:58.878Z,31.50
2023-03-29T08:36:59.466Z,31.45
2023-03-29T08:37:58.837Z,31.59
2023-03-29T08:38:58.844Z,31.68
2023-03-29T08:39:58.856Z,31.86
2023-03-29T08:40:58.844Z,31.90
2023-03-29T08:41:58.857Z,32.01
2023-03-29T08:42:58.841Z,32.14
2023-03-29T08:43:58.825Z,32.53
2023-03-29T08:44:58.819Z,32.52
2023-03-29T08:45:58.817Z,32.64
2023-03-29T08:46:59.697Z,32.93
2023-03-29T08:47:58.800Z,32.94
2023-03-29T08:48:58.730Z,33.04
2023-03-29T08:49:58.703Z,33.24
2023-03-29T08:50:58.716Z,33.42
2023-03-29T08:51:58.724Z,33.59
2023-03-29T08:53:01.542Z,33.72
2023-03-29T08:53:58.756Z,33.98
2023-03-29T08:54:59.551Z,34.05
2023-03-29T08:55:58.655Z,34.33
2023-03-29T08:56:59.582Z,34.40
2023-03-29T08:57:58.598Z,34.48
2023-03-29T08:59:00.482Z,34.74
2023-03-29T08:59:58.541Z,34.82
2023-03-29T09:00:58.499Z,34.95
2023-03-29T09:01:58.540Z,35.06
2023-03-29T09:02:58.513Z,35.21
2023-03-29T09:03:58.449Z,35.39
2023-03-29T09:04:58.370Z,35.49
2023-03-29T09:05:58.337Z,35.56
2023-03-29T09:06:58.308Z,35.62
2023-03-29T09:07:58.291Z,35.70
2023-03-29T09:08:58.321Z,35.88
2023-03-29T09:09:58.342Z,36.09
2023-03-29T09:10:58.372Z,36.10
2023-03-29T09:11:58.412Z,36.10
2023-03-29T09:12:58.438Z,36.26
2023-03-29T09:13:58.458Z,36.29
2023-03-29T09:14:58.483Z,36.45
2023-03-29T09:15:58.559Z,37.03
2023-03-29T09:16:58.566Z,36.60
2023-03-29T09:17:58.667Z,36.10
2023-03-29T09:18:58.633Z,35.83
2023-03-29T09:19:58.664Z,35.91
2023-03-29T09:20:58.785Z,35.83
2023-03-29T09:21:58.747Z,35.74
2023-03-29T09:22:59.557Z,35.65
2023-03-29T09:23:58.822Z,35.52
2023-03-29T09:24:58.823Z,35.43
2023-03-29T09:25:59.618Z,35.28
2023-03-29T09:26:58.912Z,35.30
2023-03-29T09:27:58.926Z,35.23
2023-03-29T09:28:59.001Z,35.20
2023-03-29T09:29:59.070Z,35.10
2023-03-29T09:30:58.930Z,35.12
2023-03-29T09:31:58.953Z,35.04
2023-03-29T09:32:58.937Z,35.04
2023-03-29T09:33:58.838Z,34.94
2023-03-29T09:34:58.808Z,34.97
2023-03-29T09:35:58.839Z,34.92
2023-03-29T09:36:58.778Z,34.87
2023-03-29T09:37:58.763Z,34.86
2023-03-29T09:38:58.739Z,34.84
2023-03-29T09:39:58.715Z,34.79
2023-03-29T09:40:58.833Z,34.76
2023-03-29T09:41:58.683Z,34.69
2023-03-29T09:42:58.692Z,34.69
2023-03-29T09:43:59.086Z,34.68
2023-03-29T09:44:58.653Z,34.65
2023-03-29T09:45:58.675Z,34.61
2023-03-29T09:46:58.653Z,34.62
2023-03-29T09:47:58.696Z,34.60
2023-03-29T09:48:58.657Z,34.56
2023-03-29T09:49:58.637Z,34.59
2023-03-29T09:50:58.624Z,34.56
2023-03-29T09:51:58.628Z,34.57
2023-03-29T09:52:58.666Z,34.54
2023-03-29T09:53:59.071Z,34.51
2023-03-29T09:54:58.621Z,34.46
2023-03-29T09:55:58.643Z,34.48
2023-03-29T09:56:58.685Z,34.41
2023-03-29T09:57:59.579Z,34.41
2023-03-29T09:58:58.630Z,34.42
2023-03-29T09:59:58.623Z,34.36
2023-03-29T10:00:58.664Z,34.35
2023-03-29T10:01:59.564Z,34.35
2023-03-29T10:02:58.593Z,34.38
2023-03-29T10:03:58.531Z,34.39
2023-03-29T10:04:58.489Z,34.35
2023-03-29T10:05:58.464Z,34.33
2023-03-29T10:06:58.424Z,34.37
2023-03-29T10:07:58.397Z,34.36
2023-03-29T10:08:58.367Z,34.30
2023-03-29T10:09:58.431Z,34.25
2023-03-29T10:10:58.328Z,34.29
2023-03-29T10:11:58.477Z,34.30
2023-03-29T10:12:58.268Z,34.24
2023-03-29T10:13:58.297Z,34.29
2023-03-29T10:14:58.206Z,34.20
2023-03-29T10:15:58.180Z,34.23
2023-03-29T10:16:58.179Z,34.17
2023-03-29T10:17:58.152Z,34.11
2023-03-29T10:18:58.106Z,34.08
2023-03-29T10:19:58.085Z,34.05
2023-03-29T10:20:58.051Z,34.08
2023-03-29T10:21:58.031Z,34.04
2023-03-29T10:22:58.029Z,33.99
2023-03-29T10:23:57.987Z,33.94
2023-03-29T10:24:57.979Z,33.91
2023-03-29T10:25:57.940Z,33.92
2023-03-29T10:26:57.928Z,33.90
2023-03-29T10:27:57.895Z,33.91
2023-03-29T10:28:57.863Z,33.83
2023-03-29T10:29:58.100Z,33.82
2023-03-29T10:30:57.892Z,33.80
2023-03-29T10:31:57.889Z,33.69
2023-03-29T10:32:57.830Z,33.72
2023-03-29T10:33:57.785Z,33.69
2023-03-29T10:34:57.803Z,33.64
2023-03-29T10:35:57.899Z,33.62
2023-03-29T10:36:57.788Z,33.57
2023-03-29T10:37:57.778Z,33.54
2023-03-29T10:38:57.781Z,33.54
2023-03-29T10:39:57.779Z,33.56
2023-03-29T10:40:57.777Z,33.54
2023-03-29T10:41:57.781Z,33.53
2023-03-29T10:42:57.782Z,33.45
2023-03-29T10:43:57.774Z,33.38
2023-03-29T10:44:57.784Z,33.37
2023-03-29T10:45:57.878Z,33.38
2023-03-29T10:46:58.592Z,33.31
2023-03-29T10:47:57.844Z,33.31
2023-03-29T10:48:57.798Z,33.34
2023-03-29T10:49:57.789Z,33.24
2023-03-29T10:50:57.792Z,33.25
2023-03-29T10:51:57.787Z,33.17
2023-03-29T10:52:57.793Z,33.22
2023-03-29T10:53:57.784Z,33.14
2023-03-29T10:54:57.794Z,33.18
2023-03-29T10:55:57.786Z,33.11
2023-03-29T10:56:57.917Z,33.11
2023-03-29T10:57:57.782Z,33.06
2023-03-29T10:58:57.791Z,33.04
2023-03-29T10:59:57.800Z,32.99
2023-03-29T11:00:57.782Z,32.99
2023-03-29T11:01:57.874Z,32.92
2023-03-29T11:02:57.863Z,32.95
2023-03-29T11:03:57.972Z,32.90
2023-03-29T11:04:57.829Z,32.89
2023-03-29T11:05:57.803Z,32.85
2023-03-29T11:06:57.817Z,32.90
2023-03-29T11:07:57.809Z,32.79
2023-03-29T11:08:57.831Z,32.80
2023-03-29T11:09:57.815Z,32.78
2023-03-29T11:10:57.837Z,32.75
2023-03-29T11:12:08.529Z,32.73
2023-03-29T11:12:58.803Z,32.68
2023-03-29T11:13:59.821Z,32.69
2023-03-29T11:14:57.743Z,32.68
2023-03-29T11:15:57.785Z,32.63
2023-03-29T11:16:57.689Z,32.61
2023-03-29T11:17:57.730Z,32.61
2023-03-29T11:18:57.639Z,32.58
2023-03-29T11:19:57.633Z,32.57
2023-03-29T11:20:57.596Z,32.51
2023-03-29T11:21:57.598Z,32.54
2023-03-29T11:22:57.619Z,32.49
2023-03-29T11:23:57.601Z,32.48
2023-03-29T11:24:57.657Z,32.44
2023-03-29T11:25:57.611Z,32.41
2023-03-29T11:26:57.608Z,32.41
2023-03-29T11:27:57.615Z,32.44
2023-03-29T11:28:57.684Z,32.40
2023-03-29T11:29:57.615Z,32.37
2023-03-29T11:30:57.665Z,32.30
2023-03-29T11:31:57.692Z,32.34
2023-03-29T11:32:57.638Z,32.34
2023-03-29T11:33:57.633Z,32.34
2023-03-29T11:34:57.661Z,32.31
2023-03-29T11:35:57.668Z,32.32
2023-03-29T11:36:57.636Z,32.35
2023-03-29T11:37:57.638Z,32.31
2023-03-29T11:38:57.639Z,32.28
2023-03-29T11:39:57.643Z,32.31
2023-03-29T11:40:57.738Z,32.25
2023-03-29T11:41:57.669Z,32.25
2023-03-29T11:42:57.685Z,32.24
2023-03-29T11:43:57.686Z,32.19
2023-03-29T11:44:57.706Z,32.17
2023-03-29T11:45:57.772Z,32.15
2023-03-29T11:46:57.808Z,32.18
2023-03-29T11:47:57.777Z,32.15
2023-03-29T11:48:57.757Z,32.15
2023-03-29T11:49:57.799Z,32.12
2023-03-29T11:50:57.786Z,32.09
2023-03-29T11:51:57.811Z,32.10
2023-03-29T11:52:57.802Z,32.14
2023-03-29T11:53:57.811Z,32.13
2023-03-29T11:54:57.865Z,32.10
2023-03-29T11:55:58.122Z,32.09
2023-03-29T11:56:57.855Z,32.04
2023-03-29T11:57:57.878Z,32.03
2023-03-29T11:58:57.902Z,32.08
2023-03-29T11:59:57.903Z,32.06
2023-03-29T12:00:57.947Z,32.06
2023-03-29T12:01:57.972Z,32.07
2023-03-29T12:02:58.043Z,32.06
2023-03-29T12:03:58.069Z,32.07
2023-03-29T12:04:57.996Z,32.03
2023-03-29T12:05:58.024Z,32.00
2023-03-29T12:06:58.037Z,32.03
2023-03-29T12:07:58.053Z,32.05
2023-03-29T12:08:58.073Z,31.97
2023-03-29T12:09:58.122Z,32.03
2023-03-29T12:10:58.107Z,31.96
2023-03-29T12:11:58.130Z,31.93
2023-03-29T12:12:58.157Z,31.90
2023-03-29T12:13:58.163Z,31.90
2023-03-29T12:14:58.269Z,31.90
2023-03-29T12:15:58.209Z,31.88
2023-03-29T12:16:58.245Z,31.83
2023-03-29T12:17:58.283Z,31.82
2023-03-29T12:18:58.277Z,31.83
2023-03-29T12:19:58.289Z,31.80
2023-03-29T12:20:58.301Z,31.77
2023-03-29T12:21:58.315Z,31.87
2023-03-29T12:22:58.339Z,31.83
2023-03-29T12:23:58.349Z,31.77
2023-03-29T12:24:58.380Z,31.73
2023-03-29T12:25:58.398Z,31.74
2023-03-29T12:26:58.421Z,31.67
2023-03-29T12:27:58.441Z,31.66
2023-03-29T12:28:58.455Z,31.70
2023-03-29T12:29:58.473Z,31.66
2023-03-29T12:30:58.504Z,31.63
2023-03-29T12:31:58.680Z,31.69
2023-03-29T12:32:58.619Z,31.92
2023-03-29T12:33:58.603Z,32.91
2023-03-29T12:34:58.624Z,32.37
2023-03-29T12:35:58.708Z,32.89
2023-03-29T12:36:58.686Z,33.63
2023-03-29T12:37:58.728Z,33.98
2023-03-29T12:38:59.635Z,33.77
2023-03-29T12:39:58.796Z,33.52
2023-03-29T12:40:58.830Z,33.08
2023-03-29T12:41:58.858Z,32.94
2023-03-29T12:42:58.896Z,32.67
2023-03-29T12:43:59.009Z,32.53
2023-03-29T12:44:59.004Z,32.47
2023-03-29T12:45:59.054Z,32.33
2023-03-29T12:46:59.040Z,32.26
2023-03-29T12:47:59.131Z,32.22
2023-03-29T12:48:59.114Z,32.18
2023-03-29T12:49:59.150Z,32.15
2023-03-29T12:50:59.175Z,32.12
2023-03-29T12:51:59.205Z,32.09
2023-03-29T12:52:59.233Z,32.05